createdAt,value
2019-02-25T00:00:45.321Z,8.63
2019-02-25T00:05:49.662Z,8.67
2019-02-25T00:10:54.046Z,8.73
2019-02-25T00:15:58.420Z,8.40
2019-02-25T00:21:02.821Z,8.30
2019-02-25T00:26:07.175Z,8.57
2019-02-25T00:31:11.549Z,7.70
2019-02-25T00:36:15.926Z,8.77
2019-02-25T00:41:20.343Z,7.23
2019-02-25T00:46:24.744Z,7.70
2019-02-25T00:51:29.074Z,6.73
2019-02-25T00:56:33.433Z,6.50
2019-02-25T01:01:37.835Z,6.73
2019-02-25T01:06:42.197Z,6.73
2019-02-25T01:11:46.561Z,7.13
2019-02-25T01:16:50.995Z,7.00
2019-02-25T01:21:55.354Z,7.17
2019-02-25T01:26:59.706Z,8.13
2019-02-25T01:32:04.048Z,7.57
2019-02-25T01:37:08.403Z,7.93
2019-02-25T01:42:12.811Z,7.97
2019-02-25T01:47:17.201Z,7.03
2019-02-25T01:52:21.589Z,6.50
2019-02-25T01:57:25.953Z,6.33
2019-02-25T02:02:30.330Z,6.13
2019-02-25T02:07:34.705Z,6.63
2019-02-25T02:12:39.115Z,7.00
2019-02-25T02:17:43.482Z,7.17
2019-02-25T02:22:47.842Z,6.83
2019-02-25T02:27:52.197Z,7.00
2019-02-25T02:32:57.721Z,7.53
2019-02-25T02:38:02.070Z,7.20
2019-02-25T02:43:06.783Z,7.17
2019-02-25T02:48:20.332Z,7.03
2019-02-25T02:53:24.680Z,6.77
2019-02-25T02:58:29.033Z,8.40
2019-02-25T03:03:33.454Z,7.90
2019-02-25T03:08:37.790Z,7.90
2019-02-25T03:13:42.159Z,7.80
2019-02-25T03:18:46.554Z,7.17
2019-02-25T03:23:50.937Z,6.87
2019-02-25T03:28:55.300Z,6.47
2019-02-25T03:33:59.660Z,6.90
2019-02-25T03:39:05.688Z,6.70
2019-02-25T03:44:10.139Z,7.63
2019-02-25T03:49:14.486Z,6.93
2019-02-25T03:54:18.896Z,7.20
2019-02-25T03:59:23.286Z,7.22
2019-02-25T04:04:27.754Z,6.83
2019-02-25T04:09:32.441Z,6.95
2019-02-25T04:14:36.988Z,6.50
2019-02-25T04:19:41.353Z,7.25
2019-02-25T04:24:45.687Z,6.73
2019-02-25T04:29:50.083Z,7.70
2019-02-25T04:34:55.491Z,7.90
2019-02-25T04:39:59.880Z,7.60
2019-02-25T04:45:06.646Z,8.03
2019-02-25T04:50:12.155Z,7.90
2019-02-25T04:55:16.511Z,7.43
2019-02-25T05:00:23.292Z,7.07
2019-02-25T05:05:27.619Z,8.03
2019-02-25T05:10:32.000Z,8.47
2019-02-25T05:15:37.806Z,8.23
2019-02-25T05:20:42.329Z,8.00
2019-02-25T05:25:46.713Z,7.20
2019-02-25T05:30:51.550Z,7.17
2019-02-25T05:35:57.573Z,7.77
2019-02-25T05:41:01.952Z,7.00
2019-02-25T05:46:06.435Z,6.93
2019-02-25T05:51:11.589Z,7.40
2019-02-25T05:56:16.272Z,7.53
2019-02-25T06:01:20.680Z,7.73
2019-02-25T06:06:25.063Z,7.77
2019-02-25T06:11:29.410Z,7.57
2019-02-25T06:16:33.800Z,8.27
2019-02-25T06:21:38.280Z,8.37
2019-02-25T06:26:43.636Z,8.07
2019-02-25T06:31:48.179Z,8.00
2019-02-25T06:36:53.121Z,7.67
2019-02-25T06:41:57.608Z,7.40
2019-02-25T06:47:02.039Z,8.50
2019-02-25T06:52:06.416Z,8.90
2019-02-25T06:57:10.764Z,9.30
2019-02-25T07:02:15.157Z,8.30
2019-02-25T07:07:21.156Z,8.73
2019-02-25T07:12:32.975Z,8.43
2019-02-25T07:17:57.048Z,8.20
2019-02-25T07:23:06.000Z,8.00
2019-02-25T07:28:28.332Z,8.23
2019-02-25T07:33:34.377Z,7.70
2019-02-25T07:38:40.418Z,7.77
2019-02-25T07:43:55.417Z,8.33
2019-02-25T07:49:16.693Z,8.33
2019-02-25T07:54:25.400Z,9.90
2019-02-25T07:59:31.509Z,9.43
2019-02-25T08:04:43.428Z,9.50
2019-02-25T08:09:50.495Z,10.30
2019-02-25T08:14:56.649Z,9.20
2019-02-25T08:20:19.123Z,9.67
2019-02-25T08:25:25.143Z,10.10
2019-02-25T08:30:31.131Z,9.90
2019-02-25T08:36:04.730Z,9.40
2019-02-25T08:41:12.435Z,9.20
2019-02-25T08:46:27.696Z,8.90
2019-02-25T08:51:32.136Z,9.00
2019-02-25T08:56:36.612Z,8.43
2019-02-25T09:01:40.957Z,8.17
2019-02-25T09:06:45.375Z,8.13
2019-02-25T09:11:49.743Z,7.97
2019-02-25T09:16:54.157Z,8.23
2019-02-25T09:21:58.581Z,7.70
2019-02-25T09:27:02.957Z,7.63
2019-02-25T09:32:07.327Z,9.20
2019-02-25T09:37:11.790Z,9.33
2019-02-25T09:42:16.135Z,8.53
2019-02-25T09:47:20.593Z,7.40
2019-02-25T09:52:24.968Z,7.00
2019-02-25T09:57:29.367Z,8.10
2019-02-25T10:02:34.691Z,7.43
2019-02-25T10:07:39.099Z,7.03
2019-02-25T10:12:43.437Z,7.73
2019-02-25T10:17:47.829Z,7.43
2019-02-25T10:22:52.171Z,7.50
2019-02-25T10:27:56.555Z,8.30
2019-02-25T10:33:00.984Z,8.00
2019-02-25T10:38:05.515Z,7.90
2019-02-25T10:43:09.901Z,6.80
2019-02-25T10:48:15.218Z,7.00
2019-02-25T10:53:22.114Z,7.17
2019-02-25T10:58:26.964Z,6.90
2019-02-25T11:03:32.512Z,5.87
2019-02-25T11:08:39.469Z,6.37
2019-02-25T11:13:44.187Z,6.10
2019-02-25T11:18:50.670Z,6.70
2019-02-25T11:23:54.952Z,6.90
2019-02-25T11:28:59.277Z,5.47
2019-02-25T11:34:05.595Z,5.60
2019-02-25T11:39:09.911Z,5.33
2019-02-25T11:44:14.304Z,4.80
2019-02-25T11:49:18.721Z,4.93
2019-02-25T11:54:23.098Z,4.67
2019-02-25T11:59:27.518Z,5.30
2019-02-25T12:04:32.408Z,4.80
2019-02-25T12:09:36.772Z,4.60
2019-02-25T12:14:41.145Z,4.78
2019-02-25T12:19:46.584Z,5.30
2019-02-25T12:24:51.062Z,5.50
2019-02-25T12:29:55.420Z,5.83
2019-02-25T12:34:59.771Z,6.30
2019-02-25T12:40:06.433Z,5.80
2019-02-25T12:45:14.938Z,5.50
2019-02-25T12:50:19.939Z,5.90
2019-02-25T12:55:24.315Z,5.97
2019-02-25T13:00:28.797Z,6.47
2019-02-25T13:05:33.182Z,6.67
2019-02-25T13:10:37.597Z,6.63
2019-02-25T13:15:41.987Z,6.10
2019-02-25T13:20:46.416Z,6.57
2019-02-25T13:25:50.793Z,6.73
2019-02-25T13:30:55.140Z,7.03
2019-02-25T13:35:59.525Z,6.00
2019-02-25T13:41:03.862Z,6.50
2019-02-25T13:46:08.257Z,6.50
2019-02-25T13:51:12.582Z,5.70
2019-02-25T13:56:16.988Z,6.10
2019-02-25T14:01:21.400Z,5.80
2019-02-25T14:06:25.839Z,5.73
2019-02-25T14:11:30.209Z,6.17
2019-02-25T14:16:34.609Z,6.07
2019-02-25T14:21:39.071Z,5.27
2019-02-25T14:26:43.418Z,5.07
2019-02-25T14:31:51.016Z,5.27
2019-02-25T14:36:56.807Z,5.23
2019-02-25T14:42:01.832Z,5.57
2019-02-25T14:47:19.292Z,5.83
2019-02-25T14:52:13.124Z,4.90
2019-02-25T14:57:17.488Z,4.50
2019-02-25T15:02:21.919Z,5.50
2019-02-25T15:07:26.319Z,5.00
2019-02-25T15:12:32.127Z,5.70
2019-02-25T15:17:36.788Z,5.03
2019-02-25T15:22:42.472Z,5.27
2019-02-25T15:27:48.118Z,5.50
2019-02-25T15:32:55.596Z,5.50
2019-02-25T15:38:00.424Z,5.40
2019-02-25T15:43:15.091Z,5.60
2019-02-25T15:48:22.603Z,5.67
2019-02-25T15:53:27.485Z,5.63
2019-02-25T15:58:32.025Z,6.20
2019-02-25T16:03:37.162Z,6.13
2019-02-25T16:08:47.511Z,6.23
2019-02-25T16:13:53.191Z,6.03
2019-02-25T16:18:57.183Z,6.87
2019-02-25T16:24:04.207Z,6.60
2019-02-25T16:29:09.130Z,6.23
2019-02-25T16:34:16.440Z,7.20
2019-02-25T16:39:22.188Z,6.47
2019-02-25T16:44:26.594Z,7.10
2019-02-25T16:49:31.695Z,6.80
2019-02-25T16:54:38.041Z,7.57
2019-02-25T16:59:42.427Z,7.78
2019-02-25T17:04:46.978Z,9.23
2019-02-25T17:09:51.371Z,9.03
2019-02-25T17:14:55.776Z,9.30
2019-02-25T17:20:00.185Z,9.55
2019-02-25T17:25:08.191Z,11.47
2019-02-25T17:30:19.593Z,16.43
2019-02-25T17:35:26.599Z,9.60
2019-02-25T17:40:31.248Z,9.47
2019-02-25T17:45:37.324Z,9.23
2019-02-25T17:50:42.002Z,8.90
2019-02-25T17:55:46.335Z,8.50
2019-02-25T18:00:50.858Z,9.13
2019-02-25T18:05:56.827Z,8.33
2019-02-25T18:11:01.402Z,8.17
2019-02-25T18:16:07.985Z,9.13
2019-02-25T18:21:13.710Z,9.57
2019-02-25T18:26:18.217Z,9.23
2019-02-25T18:31:22.638Z,9.23
2019-02-25T18:36:28.824Z,8.23
2019-02-25T18:41:34.310Z,9.33
2019-02-25T18:46:38.858Z,9.93
2019-02-25T18:51:43.310Z,10.27
2019-02-25T18:56:47.686Z,10.47
2019-02-25T19:01:54.097Z,11.37
2019-02-25T19:06:59.786Z,10.40
2019-02-25T19:12:04.908Z,10.43
2019-02-25T19:17:09.296Z,13.93
2019-02-25T19:22:15.811Z,17.23
2019-02-25T19:27:19.979Z,13.67
2019-02-25T19:32:24.392Z,13.30
2019-02-25T19:37:31.103Z,13.67
2019-02-25T19:42:36.402Z,16.07
2019-02-25T19:47:43.146Z,14.97
2019-02-25T19:52:47.109Z,15.47
2019-02-25T19:57:51.513Z,14.37
2019-02-25T20:03:05.750Z,14.60
2019-02-25T20:08:08.401Z,16.03
2019-02-25T20:13:12.840Z,15.97
2019-02-25T20:18:18.349Z,15.53
2019-02-25T20:23:24.969Z,14.00
2019-02-25T20:28:29.274Z,14.60
2019-02-25T20:33:35.174Z,13.27
2019-02-25T20:38:40.120Z,12.87
2019-02-25T20:43:47.299Z,13.10
2019-02-25T20:48:52.705Z,15.47
2019-02-25T20:53:58.804Z,14.53
2019-02-25T20:59:05.450Z,14.07
2019-02-25T21:04:11.359Z,16.40
2019-02-25T21:09:15.655Z,14.13
2019-02-25T21:14:20.162Z,13.97
2019-02-25T21:19:24.552Z,15.87
2019-02-25T21:24:31.033Z,15.57
2019-02-25T21:29:38.332Z,14.37
2019-02-25T21:34:41.288Z,14.37
2019-02-25T21:39:45.661Z,14.20
2019-02-25T21:44:50.714Z,13.53
2019-02-25T21:49:58.742Z,12.60
2019-02-25T21:55:04.686Z,14.27
2019-02-25T22:00:14.963Z,13.77
2019-02-25T22:05:21.360Z,11.30
2019-02-25T22:10:26.021Z,11.17
2019-02-25T22:15:30.508Z,12.63
2019-02-25T22:20:37.642Z,11.00
2019-02-25T22:25:41.003Z,10.53
2019-02-25T22:30:47.381Z,9.07
2019-02-25T22:35:51.961Z,9.93
2019-02-25T22:40:59.419Z,10.03
2019-02-25T22:46:04.767Z,9.90
2019-02-25T22:51:08.859Z,10.47
2019-02-25T22:56:15.431Z,11.20
2019-02-25T23:01:19.404Z,10.50
2019-02-25T23:06:25.387Z,10.60
2019-02-25T23:11:29.921Z,13.43
2019-02-25T23:16:34.292Z,13.47
2019-02-25T23:21:39.536Z,13.93
2019-02-25T23:26:43.897Z,12.70
2019-02-25T23:31:48.574Z,12.60
2019-02-25T23:36:54.407Z,11.60
2019-02-25T23:42:00.678Z,11.33
2019-02-25T23:47:07.118Z,10.27
2019-02-25T23:52:11.448Z,10.10
2019-02-25T23:57:17.305Z,10.13
